sensor_id;sensor_type;location;lat;lon;timestamp;pressure;altitude;pressure_sealevel;temperature;humidity
48872;BME280;36154;51.674;7.824;2023-03-25T00:01:36;99486.19;;;20.36;50.69
48872;BME280;36154;51.674;7.824;2023-03-25T00:04:02;99482.75;;;20.36;50.55
48872;BME280;36154;51.674;7.824;2023-03-25T00:06:29;99484.44;;;20.37;50.74
48872;BME280;36154;51.674;7.824;2023-03-25T00:08:55;99484.44;;;20.37;50.64
48872;BME280;36154;51.674;7.824;2023-03-25T00:11:21;99492.22;;;20.37;50.79
48872;BME280;36154;51.674;7.824;2023-03-25T00:13:47;99481.00;;;20.36;50.57
48872;BME280;36154;51.674;7.824;2023-03-25T00:16:14;99487.94;;;20.36;50.65
48872;BME280;36154;51.674;7.824;2023-03-25T00:18:40;99486.19;;;20.36;50.69
48872;BME280;36154;51.674;7.824;2023-03-25T00:21:06;99496.53;;;20.36;50.72
48872;BME280;36154;51.674;7.824;2023-03-25T00:23:37;99481.88;;;20.37;50.75
48872;BME280;36154;51.674;7.824;2023-03-25T00:26:03;99485.34;;;20.36;50.81
48872;BME280;36154;51.674;7.824;2023-03-25T00:28:31;99485.34;;;20.36;50.80
48872;BME280;36154;51.674;7.824;2023-03-25T00:31:03;99474.38;;;20.30;50.81
48872;BME280;36154;51.674;7.824;2023-03-25T00:33:29;99486.25;;;20.35;50.86
48872;BME280;36154;51.674;7.824;2023-03-25T00:35:56;99482.75;;;20.36;50.71
48872;BME280;36154;51.674;7.824;2023-03-25T00:38:25;99479.34;;;20.35;50.75
48872;BME280;36154;51.674;7.824;2023-03-25T00:40:58;99482.81;;;20.34;50.85
48872;BME280;36154;51.674;7.824;2023-03-25T00:43:23;99481.06;;;20.35;50.77
48872;BME280;36154;51.674;7.824;2023-03-25T00:45:48;99482.81;;;20.34;50.76
48872;BME280;36154;51.674;7.824;2023-03-25T00:48:14;99486.25;;;20.35;50.69
48872;BME280;36154;51.674;7.824;2023-03-25T00:50:39;99486.25;;;20.35;50.62
48872;BME280;36154;51.674;7.824;2023-03-25T00:53:05;99491.41;;;20.35;50.80
48872;BME280;36154;51.674;7.824;2023-03-25T00:55:32;99488.81;;;20.35;50.71
48872;BME280;36154;51.674;7.824;2023-03-25T00:57:57;99490.59;;;20.34;50.65
48872;BME280;36154;51.674;7.824;2023-03-25T01:00:22;99483.66;;;20.35;50.73
48872;BME280;36154;51.674;7.824;2023-03-25T01:02:48;99475.97;;;20.33;50.84
48872;BME280;36154;51.674;7.824;2023-03-25T01:05:17;99489.75;;;20.34;50.65
48872;BME280;36154;51.674;7.824;2023-03-25T01:07:45;99487.16;;;20.34;50.62
48872;BME280;36154;51.674;7.824;2023-03-25T01:10:13;99485.41;;;20.34;50.77
48872;BME280;36154;51.674;7.824;2023-03-25T01:12:38;99494.94;;;20.34;51.17
48872;BME280;36154;51.674;7.824;2023-03-25T01:15:04;99495.75;;;20.34;50.69
48872;BME280;36154;51.674;7.824;2023-03-25T01:17:30;99489.75;;;20.34;50.57
48872;BME280;36154;51.674;7.824;2023-03-25T01:19:55;99490.66;;;20.33;50.75
48872;BME280;36154;51.674;7.824;2023-03-25T01:22:21;99480.31;;;20.33;50.63
48872;BME280;36154;51.674;7.824;2023-03-25T01:24:46;99482.00;;;20.34;50.72
48872;BME280;36154;51.674;7.824;2023-03-25T01:27:11;99492.34;;;20.34;50.55
48872;BME280;36154;51.674;7.824;2023-03-25T01:29:36;99488.06;;;20.33;50.65
48872;BME280;36154;51.674;7.824;2023-03-25T01:32:02;99481.13;;;20.33;50.66
48872;BME280;36154;51.674;7.824;2023-03-25T01:34:27;99486.31;;;20.33;50.72
48872;BME280;36154;51.674;7.824;2023-03-25T01:36:52;99480.31;;;20.33;50.78
48872;BME280;36154;51.674;7.824;2023-03-25T01:39:19;99479.41;;;20.34;50.59
48872;BME280;36154;51.674;7.824;2023-03-25T01:41:47;99475.13;;;20.33;50.73
48872;BME280;36154;51.674;7.824;2023-03-25T01:46:39;99475.97;;;20.33;50.74
48872;BME280;36154;51.674;7.824;2023-03-25T01:49:12;99472.56;;;20.33;50.66
48872;BME280;36154;51.674;7.824;2023-03-25T01:51:41;99468.28;;;20.31;50.65
48872;BME280;36154;51.674;7.824;2023-03-25T01:54:07;99462.28;;;20.31;50.80
48872;BME280;36154;51.674;7.824;2023-03-25T01:56:35;99469.19;;;20.30;50.72
48872;BME280;36154;51.674;7.824;2023-03-25T01:59:04;99452.75;;;20.31;50.60
48872;BME280;36154;51.674;7.824;2023-03-25T02:01:31;99458.84;;;20.30;50.69
48872;BME280;36154;51.674;7.824;2023-03-25T02:03:58;99461.44;;;20.30;50.43
48872;BME280;36154;51.674;7.824;2023-03-25T02:06:38;99457.94;;;20.31;50.62
48872;BME280;36154;51.674;7.824;2023-03-25T02:09:06;99459.75;;;20.29;50.54
48872;BME280;36154;51.674;7.824;2023-03-25T02:11:34;99445.94;;;20.30;50.71
48872;BME280;36154;51.674;7.824;2023-03-25T02:14:05;99445.00;;;20.31;50.87
48872;BME280;36154;51.674;7.824;2023-03-25T02:28:08;99436.53;;;20.28;50.65
48872;BME280;36154;51.674;7.824;2023-03-25T02:38:59;99442.56;;;20.28;50.74
48872;BME280;36154;51.674;7.824;2023-03-25T02:41:53;99438.31;;;20.27;50.65
48872;BME280;36154;51.674;7.824;2023-03-25T02:44:40;99440.06;;;20.27;50.92
48872;BME280;36154;51.674;7.824;2023-03-25T02:47:17;99438.31;;;20.27;50.66
48872;BME280;36154;51.674;7.824;2023-03-25T02:50:18;99444.38;;;20.26;50.69
48872;BME280;36154;51.674;7.824;2023-03-25T02:52:53;99446.06;;;20.27;50.67
48872;BME280;36154;51.674;7.824;2023-03-25T02:55:21;99431.44;;;20.26;50.75
48872;BME280;36154;51.674;7.824;2023-03-25T02:57:51;99418.50;;;20.26;50.54
48872;BME280;36154;51.674;7.824;2023-03-25T03:00:26;99428.84;;;20.26;50.68
48872;BME280;36154;51.674;7.824;2023-03-25T03:02:58;99425.38;;;20.27;50.69
48872;BME280;36154;51.674;7.824;2023-03-25T03:05:28;99434.03;;;20.26;50.82
48872;BME280;36154;51.674;7.824;2023-03-25T03:08:26;99428.84;;;20.26;50.70
48872;BME280;36154;51.674;7.824;2023-03-25T03:27:33;99432.38;;;20.25;50.67
48872;BME280;36154;51.674;7.824;2023-03-25T03:30:16;99430.69;;;20.24;50.77
48872;BME280;36154;51.674;7.824;2023-03-25T03:32:55;99427.28;;;20.24;50.41
48872;BME280;36154;51.674;7.824;2023-03-25T03:35:53;99419.50;;;20.24;50.58
48872;BME280;36154;51.674;7.824;2023-03-25T03:38:25;99431.50;;;20.25;50.60
48872;BME280;36154;51.674;7.824;2023-03-25T03:41:13;99424.69;;;20.24;50.66
48872;BME280;36154;51.674;7.824;2023-03-25T03:43:44;99435.03;;;20.24;50.67
48872;BME280;36154;51.674;7.824;2023-03-25T03:46:18;99435.03;;;20.24;50.49
48872;BME280;36154;51.674;7.824;2023-03-25T03:48:50;99434.19;;;20.23;50.52
48872;BME280;36154;51.674;7.824;2023-03-25T03:51:24;99434.34;;;20.20;50.59
48872;BME280;36154;51.674;7.824;2023-03-25T03:53:58;99429.16;;;20.20;50.67
48872;BME280;36154;51.674;7.824;2023-03-25T03:56:32;99432.59;;;20.21;50.61
48872;BME280;36154;51.674;7.824;2023-03-25T03:59:30;99425.66;;;20.21;50.64
48872;BME280;36154;51.674;7.824;2023-03-25T04:02:08;99429.16;;;20.20;50.68
48872;BME280;36154;51.674;7.824;2023-03-25T04:04:45;99424.81;;;20.21;50.52
48872;BME280;36154;51.674;7.824;2023-03-25T04:07:31;99429.94;;;20.22;50.51
48872;BME280;36154;51.674;7.824;2023-03-25T04:11:21;99429.16;;;20.20;50.56
48872;BME280;36154;51.674;7.824;2023-03-25T04:13:33;99434.34;;;20.20;50.42
48872;BME280;36154;51.674;7.824;2023-03-25T04:16:04;99436.91;;;20.20;50.56
48872;BME280;36154;51.674;7.824;2023-03-25T04:18:31;99430.97;;;20.18;50.44
48872;BME280;36154;51.674;7.824;2023-03-25T04:20:59;99441.16;;;20.21;50.38
48872;BME280;36154;51.674;7.824;2023-03-25T04:23:27;99441.16;;;20.21;50.48
48872;BME280;36154;51.674;7.824;2023-03-25T04:25:59;99446.34;;;20.21;50.58
48872;BME280;36154;51.674;7.824;2023-03-25T04:28:28;99445.44;;;20.22;50.43
48872;BME280;36154;51.674;7.824;2023-03-25T04:30:56;99446.34;;;20.21;50.40
48872;BME280;36154;51.674;7.824;2023-03-25T04:33:30;99439.44;;;20.22;50.40
48872;BME280;36154;51.674;7.824;2023-03-25T04:36:05;99436.00;;;20.21;50.43
48872;BME280;36154;51.674;7.824;2023-03-25T04:38:32;99446.34;;;20.21;50.37
48872;BME280;36154;51.674;7.824;2023-03-25T04:41:01;99445.50;;;20.21;50.50
48872;BME280;36154;51.674;7.824;2023-03-25T04:43:31;99440.34;;;20.21;50.45
48872;BME280;36154;51.674;7.824;2023-03-25T04:45:58;99442.84;;;20.22;50.36
48872;BME280;36154;51.674;7.824;2023-03-25T04:48:27;99430.81;;;20.21;50.35
48872;BME280;36154;51.674;7.824;2023-03-25T04:50:56;99442.03;;;20.22;50.36
48872;BME280;36154;51.674;7.824;2023-03-25T04:53:26;99441.16;;;20.21;50.42
48872;BME280;36154;51.674;7.824;2023-03-25T04:55:53;99442.03;;;20.22;50.36
48872;BME280;36154;51.674;7.824;2023-03-25T04:58:20;99437.75;;;20.21;50.28
48872;BME280;36154;51.674;7.824;2023-03-25T05:00:50;99440.34;;;20.21;50.27
48872;BME280;36154;51.674;7.824;2023-03-25T05:03:18;99426.50;;;20.22;50.27
48872;BME280;36154;51.674;7.824;2023-03-25T05:05:52;99429.03;;;20.23;50.40
48872;BME280;36154;51.674;7.824;2023-03-25T05:08:18;99437.53;;;20.25;50.26
48872;BME280;36154;51.674;7.824;2023-03-25T05:10:48;99437.53;;;20.25;50.12
48872;BME280;36154;51.674;7.824;2023-03-25T05:13:14;99428.84;;;20.26;50.16
48872;BME280;36154;51.674;7.824;2023-03-25T05:15:44;99420.19;;;20.27;50.20
48872;BME280;36154;51.674;7.824;2023-03-25T05:18:12;99430.53;;;20.27;50.16
48872;BME280;36154;51.674;7.824;2023-03-25T05:20:44;99426.19;;;20.28;50.01
48872;BME280;36154;51.674;7.824;2023-03-25T05:23:12;99437.41;;;20.28;50.14
48872;BME280;36154;51.674;7.824;2023-03-25T05:25:49;99432.22;;;20.28;50.00
48872;BME280;36154;51.674;7.824;2023-03-25T05:28:16;99434.81;;;20.28;50.08
48872;BME280;36154;51.674;7.824;2023-03-25T05:30:45;99430.47;;;20.29;50.06
48872;BME280;36154;51.674;7.824;2023-03-25T05:33:14;99432.22;;;20.28;50.02
48872;BME280;36154;51.674;7.824;2023-03-25T05:35:44;99430.47;;;20.29;49.88
48872;BME280;36154;51.674;7.824;2023-03-25T05:38:10;99432.22;;;20.28;49.91
48872;BME280;36154;51.674;7.824;2023-03-25T05:40:44;99437.41;;;20.28;49.94
48872;BME280;36154;51.674;7.824;2023-03-25T05:43:12;99439.06;;;20.29;49.94
48872;BME280;36154;51.674;7.824;2023-03-25T05:45:40;99429.66;;;20.28;49.85
48872;BME280;36154;51.674;7.824;2023-03-25T05:48:09;99439.13;;;20.28;49.78
48872;BME280;36154;51.674;7.824;2023-03-25T05:50:36;99439.91;;;20.30;49.94
48872;BME280;36154;51.674;7.824;2023-03-25T05:53:03;99439.06;;;20.29;49.84
48872;BME280;36154;51.674;7.824;2023-03-25T05:55:29;99444.25;;;20.29;49.84
48872;BME280;36154;51.674;7.824;2023-03-25T05:57:55;99444.25;;;20.29;49.88
48872;BME280;36154;51.674;7.824;2023-03-25T06:00:22;99452.00;;;20.29;49.93
48872;BME280;36154;51.674;7.824;2023-03-25T06:02:49;99456.28;;;20.30;49.89
48872;BME280;36154;51.674;7.824;2023-03-25T06:05:16;99457.94;;;20.31;49.80
48872;BME280;36154;51.674;7.824;2023-03-25T06:07:44;99456.34;;;20.29;49.85
48872;BME280;36154;51.674;7.824;2023-03-25T06:10:15;99461.44;;;20.30;49.89
48872;BME280;36154;51.674;7.824;2023-03-25T06:12:45;99452.94;;;20.28;49.87
48872;BME280;36154;51.674;7.824;2023-03-25T06:15:14;99468.50;;;20.27;49.84
48872;BME280;36154;51.674;7.824;2023-03-25T06:17:43;99459.88;;;20.26;49.89
48872;BME280;36154;51.674;7.824;2023-03-25T06:20:12;99461.59;;;20.27;49.78
48872;BME280;36154;51.674;7.824;2023-03-25T06:22:44;99460.81;;;20.25;49.77
48872;BME280;36154;51.674;7.824;2023-03-25T06:25:12;99459.00;;;20.27;49.83
48872;BME280;36154;51.674;7.824;2023-03-25T06:27:39;99461.59;;;20.27;49.90
48872;BME280;36154;51.674;7.824;2023-03-25T06:30:14;99454.66;;;20.28;49.87
48872;BME280;36154;51.674;7.824;2023-03-25T06:32:40;99460.69;;;20.28;49.67
48872;BME280;36154;51.674;7.824;2023-03-25T06:35:10;99451.22;;;20.27;49.87
48872;BME280;36154;51.674;7.824;2023-03-25T06:37:47;99458.09;;;20.28;49.74
48872;BME280;36154;51.674;7.824;2023-03-25T06:40:19;99455.50;;;20.28;49.74
48872;BME280;36154;51.674;7.824;2023-03-25T06:42:47;99463.28;;;20.28;49.69
48872;BME280;36154;51.674;7.824;2023-03-25T06:45:13;99457.25;;;20.28;49.61
48872;BME280;36154;51.674;7.824;2023-03-25T06:47:40;99453.81;;;20.27;49.75
48872;BME280;36154;51.674;7.824;2023-03-25T06:50:12;99457.25;;;20.28;49.75
48872;BME280;36154;51.674;7.824;2023-03-25T06:52:38;99459.75;;;20.29;49.74
48872;BME280;36154;51.674;7.824;2023-03-25T06:55:05;99455.50;;;20.28;49.68
48872;BME280;36154;51.674;7.824;2023-03-25T06:57:31;99461.59;;;20.27;49.59
48872;BME280;36154;51.674;7.824;2023-03-25T07:00:04;99462.41;;;20.28;49.67
48872;BME280;36154;51.674;7.824;2023-03-25T07:02:31;99458.09;;;20.28;49.69
48872;BME280;36154;51.674;7.824;2023-03-25T07:04:57;99452.06;;;20.28;49.56
48872;BME280;36154;51.674;7.824;2023-03-25T07:07:26;99452.06;;;20.28;49.74
48872;BME280;36154;51.674;7.824;2023-03-25T07:09:52;99452.94;;;20.28;49.53
48872;BME280;36154;51.674;7.824;2023-03-25T07:12:23;99458.09;;;20.28;49.57
48872;BME280;36154;51.674;7.824;2023-03-25T07:14:53;99459.75;;;20.29;49.56
48872;BME280;36154;51.674;7.824;2023-03-25T07:17:23;99458.09;;;20.28;49.85
48872;BME280;36154;51.674;7.824;2023-03-25T07:19:49;99442.56;;;20.28;49.72
48872;BME280;36154;51.674;7.824;2023-03-25T07:22:15;99459.75;;;20.29;49.59
48872;BME280;36154;51.674;7.824;2023-03-25T07:24:45;99454.59;;;20.29;49.69
48872;BME280;36154;51.674;7.824;2023-03-25T07:27:12;99455.44;;;20.30;49.48
48872;BME280;36154;51.674;7.824;2023-03-25T07:29:38;99464.94;;;20.29;49.45
48872;BME280;36154;51.674;7.824;2023-03-25T07:32:05;99462.34;;;20.29;49.47
48872;BME280;36154;51.674;7.824;2023-03-25T07:34:34;99459.75;;;20.29;49.44
48872;BME280;36154;51.674;7.824;2023-03-25T07:37:02;99461.44;;;20.30;49.45
48872;BME280;36154;51.674;7.824;2023-03-25T07:39:29;99457.16;;;20.29;49.51
48872;BME280;36154;51.674;7.824;2023-03-25T07:41:55;99475.22;;;20.31;49.31
48872;BME280;36154;51.674;7.824;2023-03-25T07:44:21;99464.94;;;20.29;49.48
48872;BME280;36154;51.674;7.824;2023-03-25T07:46:48;99459.75;;;20.29;49.39
48872;BME280;36154;51.674;7.824;2023-03-25T07:49:15;99466.63;;;20.30;49.37
48872;BME280;36154;51.674;7.824;2023-03-25T07:51:41;99457.94;;;20.31;49.24
48872;BME280;36154;51.674;7.824;2023-03-25T07:54:11;99469.19;;;20.30;49.36
48872;BME280;36154;51.674;7.824;2023-03-25T07:56:37;99468.28;;;20.31;49.36
48872;BME280;36154;51.674;7.824;2023-03-25T07:59:05;99473.44;;;20.31;49.27
48872;BME280;36154;51.674;7.824;2023-03-25T08:01:31;99468.28;;;20.31;49.37
48872;BME280;36154;51.674;7.824;2023-03-25T08:03:57;99468.28;;;20.31;49.37
48872;BME280;36154;51.674;7.824;2023-03-25T08:06:23;99476.91;;;20.32;49.34
48872;BME280;36154;51.674;7.824;2023-03-25T08:08:49;99471.72;;;20.32;49.26
48872;BME280;36154;51.674;7.824;2023-03-25T08:11:17;99477.72;;;20.33;49.25
48872;BME280;36154;51.674;7.824;2023-03-25T08:13:42;99482.00;;;20.34;49.20
48872;BME280;36154;51.674;7.824;2023-03-25T08:16:12;99481.13;;;20.33;49.11
48872;BME280;36154;51.674;7.824;2023-03-25T08:18:38;99488.91;;;20.33;49.15
48872;BME280;36154;51.674;7.824;2023-03-25T08:21:04;99487.16;;;20.34;49.44
48872;BME280;36154;51.674;7.824;2023-03-25T08:23:30;99482.91;;;20.33;49.05
48872;BME280;36154;51.674;7.824;2023-03-25T08:26:01;99493.25;;;20.33;49.14
48872;BME280;36154;51.674;7.824;2023-03-25T08:28:30;99489.81;;;20.32;49.23
48872;BME280;36154;51.674;7.824;2023-03-25T08:30:56;99501.00;;;20.33;49.10
48872;BME280;36154;51.674;7.824;2023-03-25T08:33:24;99495.84;;;20.33;49.23
48872;BME280;36154;51.674;7.824;2023-03-25T08:36:00;99496.66;;;20.33;49.07
48872;BME280;36154;51.674;7.824;2023-03-25T08:38:27;99504.50;;;20.31;49.06
48872;BME280;36154;51.674;7.824;2023-03-25T08:40:59;99501.06;;;20.31;49.13
48872;BME280;36154;51.674;7.824;2023-03-25T08:43:26;99505.41;;;20.30;49.13
48872;BME280;36154;51.674;7.824;2023-03-25T08:45:52;99497.66;;;20.30;49.08
48872;BME280;36154;51.674;7.824;2023-03-25T08:48:18;99508.00;;;20.30;49.02
48872;BME280;36154;51.674;7.824;2023-03-25T08:50:44;99508.81;;;20.31;48.94
48872;BME280;36154;51.674;7.824;2023-03-25T08:53:10;99509.66;;;20.31;49.06
48872;BME280;36154;51.674;7.824;2023-03-25T08:55:36;99513.19;;;20.30;49.02
48872;BME280;36154;51.674;7.824;2023-03-25T08:58:04;99504.50;;;20.31;48.98
48872;BME280;36154;51.674;7.824;2023-03-25T09:00:30;99501.91;;;20.31;48.99
48872;BME280;36154;51.674;7.824;2023-03-25T09:02:57;99494.13;;;20.31;48.92
48872;BME280;36154;51.674;7.824;2023-03-25T09:05:25;99499.31;;;20.31;49.05
48872;BME280;36154;51.674;7.824;2023-03-25T09:07:51;99496.72;;;20.31;49.00
48872;BME280;36154;51.674;7.824;2023-03-25T09:10:17;99483.78;;;20.31;48.92
48872;BME280;36154;51.674;7.824;2023-03-25T09:12:43;99498.41;;;20.33;49.10
48872;BME280;36154;51.674;7.824;2023-03-25T09:15:09;99503.66;;;20.31;48.93
48872;BME280;36154;51.674;7.824;2023-03-25T09:17:37;99495.00;;;20.32;48.96
48872;BME280;36154;51.674;7.824;2023-03-25T09:20:03;99501.06;;;20.31;48.92
48872;BME280;36154;51.674;7.824;2023-03-25T09:22:28;99491.56;;;20.31;49.03
48872;BME280;36154;51.674;7.824;2023-03-25T09:24:54;99495.97;;;20.29;49.01
48872;BME280;36154;51.674;7.824;2023-03-25T09:27:20;99488.97;;;20.31;48.97
48872;BME280;36154;51.674;7.824;2023-03-25T09:29:46;99498.41;;;20.33;48.80
48872;BME280;36154;51.674;7.824;2023-03-25T09:32:12;99492.41;;;20.32;48.90
48872;BME280;36154;51.674;7.824;2023-03-25T09:34:39;99500.16;;;20.32;48.96
48872;BME280;36154;51.674;7.824;2023-03-25T09:37:05;99498.41;;;20.33;48.83
48872;BME280;36154;51.674;7.824;2023-03-25T09:39:31;99498.41;;;20.33;48.83
48872;BME280;36154;51.674;7.824;2023-03-25T09:42:28;99504.50;;;20.31;48.91
48872;BME280;36154;51.674;7.824;2023-03-25T09:50:40;99507.16;;;20.30;48.90
48872;BME280;36154;51.674;7.824;2023-03-25T09:53:31;99515.75;;;20.30;48.92
48872;BME280;36154;51.674;7.824;2023-03-25T09:55:59;99511.47;;;20.29;48.79
48872;BME280;36154;51.674;7.824;2023-03-25T09:58:32;99517.50;;;20.30;48.80
48872;BME280;36154;51.674;7.824;2023-03-25T10:04:00;99519.25;;;20.29;48.85
48872;BME280;36154;51.674;7.824;2023-03-25T10:06:30;99508.00;;;20.30;48.96
48872;BME280;36154;51.674;7.824;2023-03-25T10:18:25;99502.75;;;20.32;48.89
48872;BME280;36154;51.674;7.824;2023-03-25T10:21:22;99513.19;;;20.30;49.00
48872;BME280;36154;51.674;7.824;2023-03-25T10:26:44;99522.59;;;20.31;48.97
48872;BME280;36154;51.674;7.824;2023-03-25T10:29:26;99523.53;;;20.30;48.97
48872;BME280;36154;51.674;7.824;2023-03-25T10:32:01;99535.53;;;20.31;48.79
48872;BME280;36154;51.674;7.824;2023-03-25T10:34:38;99534.69;;;20.31;48.90
48872;BME280;36154;51.674;7.824;2023-03-25T10:37:11;99547.63;;;20.31;48.75
48872;BME280;36154;51.674;7.824;2023-03-25T10:39:43;99540.78;;;20.30;48.90
48872;BME280;36154;51.674;7.824;2023-03-25T10:43:00;99539.03;;;20.30;48.94
48872;BME280;36154;51.674;7.824;2023-03-25T10:45:16;99526.09;;;20.30;48.96
48872;BME280;36154;51.674;7.824;2023-03-25T10:47:43;99545.97;;;20.30;48.85
48872;BME280;36154;51.674;7.824;2023-03-25T10:50:18;99549.38;;;20.30;49.04
48872;BME280;36154;51.674;7.824;2023-03-25T10:52:47;99554.56;;;20.30;48.92
48872;BME280;36154;51.674;7.824;2023-03-25T10:55:33;99545.09;;;20.29;48.77
48872;BME280;36154;51.674;7.824;2023-03-25T10:58:00;99546.88;;;20.29;49.01
48872;BME280;36154;51.674;7.824;2023-03-25T11:00:27;99552.88;;;20.29;48.91
48872;BME280;36154;51.674;7.824;2023-03-25T11:02:55;99558.03;;;20.29;48.91
48872;BME280;36154;51.674;7.824;2023-03-25T11:05:23;99562.31;;;20.30;49.02
48872;BME280;36154;51.674;7.824;2023-03-25T11:10:23;99554.56;;;20.30;48.97
48872;BME280;36154;51.674;7.824;2023-03-25T11:12:50;99549.38;;;20.30;49.00
48872;BME280;36154;51.674;7.824;2023-03-25T11:15:25;99546.78;;;20.30;49.05
48872;BME280;36154;51.674;7.824;2023-03-25T11:18:20;99552.72;;;20.33;48.90
48872;BME280;36154;51.674;7.824;2023-03-25T11:20:50;99545.81;;;20.33;48.85
48872;BME280;36154;51.674;7.824;2023-03-25T11:23:27;99538.03;;;20.33;49.00
48872;BME280;36154;51.674;7.824;2023-03-25T11:26:10;99537.97;;;20.35;48.96
48872;BME280;36154;51.674;7.824;2023-03-25T11:28:43;99555.25;;;20.34;48.90
48872;BME280;36154;51.674;7.824;2023-03-25T11:31:23;99526.72;;;20.36;48.80
48872;BME280;36154;51.674;7.824;2023-03-25T11:34:19;99534.56;;;20.34;48.78
48872;BME280;36154;51.674;7.824;2023-03-25T11:36:54;99550.91;;;20.35;49.05
48872;BME280;36154;51.674;7.824;2023-03-25T11:39:38;99537.16;;;20.34;48.91
48872;BME280;36154;51.674;7.824;2023-03-25T11:42:28;99542.38;;;20.33;48.83
48872;BME280;36154;51.674;7.824;2023-03-25T11:45:00;99533.72;;;20.34;48.94
48872;BME280;36154;51.674;7.824;2023-03-25T11:47:35;99540.56;;;20.35;48.86
48872;BME280;36154;51.674;7.824;2023-03-25T11:50:03;99533.72;;;20.34;48.99
48872;BME280;36154;51.674;7.824;2023-03-25T11:52:38;99544.06;;;20.34;48.91
48872;BME280;36154;51.674;7.824;2023-03-25T11:55:15;99533.72;;;20.34;48.96
48872;BME280;36154;51.674;7.824;2023-03-25T11:57:44;99531.97;;;20.34;48.83
48872;BME280;36154;51.674;7.824;2023-03-25T12:03:20;99519.94;;;20.33;48.85
48872;BME280;36154;51.674;7.824;2023-03-25T12:06:02;99517.34;;;20.33;48.88
48872;BME280;36154;51.674;7.824;2023-03-25T12:08:41;99528.56;;;20.34;48.81
48872;BME280;36154;51.674;7.824;2023-03-25T12:11:13;99519.03;;;20.34;48.86
48872;BME280;36154;51.674;7.824;2023-03-25T12:16:36;99518.06;;;20.37;48.93
48872;BME280;36154;51.674;7.824;2023-03-25T12:22:00;99511.84;;;20.41;48.93
48872;BME280;36154;51.674;7.824;2023-03-25T12:35:57;99486.72;;;20.43;49.00
48872;BME280;36154;51.674;7.824;2023-03-25T12:52:12;99492.03;;;20.40;48.83
48872;BME280;36154;51.674;7.824;2023-03-25T13:03:33;99499.88;;;20.38;48.83
48872;BME280;36154;51.674;7.824;2023-03-25T13:08:40;99471.50;;;20.37;48.69
48872;BME280;36154;51.674;7.824;2023-03-25T13:11:20;99478.34;;;20.38;48.68
48872;BME280;36154;51.674;7.824;2023-03-25T13:13:48;99461.16;;;20.37;48.88
48872;BME280;36154;51.674;7.824;2023-03-25T13:16:26;99475.69;;;20.39;48.78
48872;BME280;36154;51.674;7.824;2023-03-25T13:19:09;99479.97;;;20.40;48.61
48872;BME280;36154;51.674;7.824;2023-03-25T13:21:40;99474.72;;;20.42;48.76
48872;BME280;36154;51.674;7.824;2023-03-25T13:24:14;99471.22;;;20.43;48.69
48872;BME280;36154;51.674;7.824;2023-03-25T13:26:43;99464.19;;;20.45;48.67
48872;BME280;36154;51.674;7.824;2023-03-25T13:29:30;99475.38;;;20.47;48.55
48872;BME280;36154;51.674;7.824;2023-03-25T13:32:02;99470.97;;;20.49;48.69
48872;BME280;36154;51.674;7.824;2023-03-25T13:35:10;99466.53;;;20.51;48.79
48872;BME280;36154;51.674;7.824;2023-03-25T13:37:45;99469.00;;;20.54;48.61
48872;BME280;36154;51.674;7.824;2023-03-25T13:45:20;99457.81;;;20.54;48.40
48872;BME280;36154;51.674;7.824;2023-03-25T13:47:55;99452.63;;;20.54;48.59
48872;BME280;36154;51.674;7.824;2023-03-25T13:52:52;99465.66;;;20.52;48.44
48872;BME280;36154;51.674;7.824;2023-03-25T13:55:27;99453.59;;;20.51;48.40
48872;BME280;36154;51.674;7.824;2023-03-25T14:03:47;99458.78;;;20.51;48.45
48872;BME280;36154;51.674;7.824;2023-03-25T14:06:57;99465.66;;;20.52;48.38
48872;BME280;36154;51.674;7.824;2023-03-25T14:10:01;99463.94;;;20.51;48.53
48872;BME280;36154;51.674;7.824;2023-03-25T14:13:03;99460.47;;;20.52;48.46
48872;BME280;36154;51.674;7.824;2023-03-25T14:15:33;99472.47;;;20.53;48.54
48872;BME280;36154;51.674;7.824;2023-03-25T14:18:01;99465.50;;;20.55;48.35
48872;BME280;36154;51.674;7.824;2023-03-25T14:20:36;99464.56;;;20.56;48.35
48872;BME280;36154;51.674;7.824;2023-03-25T14:23:12;99466.25;;;20.57;48.30
48872;BME280;36154;51.674;7.824;2023-03-25T14:25:46;99468.84;;;20.57;48.37
48872;BME280;36154;51.674;7.824;2023-03-25T14:28:30;99474.03;;;20.57;48.39
48872;BME280;36154;51.674;7.824;2023-03-25T14:44:29;99486.91;;;20.59;48.39
48872;BME280;36154;51.674;7.824;2023-03-25T14:47:00;99495.41;;;20.61;48.25
48872;BME280;36154;51.674;7.824;2023-03-25T14:49:46;99491.06;;;20.61;48.49
48872;BME280;36154;51.674;7.824;2023-03-25T14:52:25;99501.28;;;20.64;48.51
48872;BME280;36154;51.674;7.824;2023-03-25T14:54:53;99514.97;;;20.66;48.46
48872;BME280;36154;51.674;7.824;2023-03-25T14:57:25;99502.91;;;20.67;48.44
48872;BME280;36154;51.674;7.824;2023-03-25T15:00:04;99512.31;;;20.68;48.79
48872;BME280;36154;51.674;7.824;2023-03-25T15:02:43;99514.97;;;20.66;48.86
48872;BME280;36154;51.674;7.824;2023-03-25T15:05:18;99515.91;;;20.65;49.54
48872;BME280;36154;51.674;7.824;2023-03-25T15:08:25;99521.97;;;20.64;49.92
48872;BME280;36154;51.674;7.824;2023-03-25T15:11:26;99514.22;;;20.64;50.01
48872;BME280;36154;51.674;7.824;2023-03-25T15:13:59;99516.88;;;20.63;50.05
48872;BME280;36154;51.674;7.824;2023-03-25T15:18:59;99517.81;;;20.62;50.28
48872;BME280;36154;51.674;7.824;2023-03-25T15:21:34;99507.44;;;20.62;50.36
48872;BME280;36154;51.674;7.824;2023-03-25T15:24:33;99504.00;;;20.61;49.98
48872;BME280;36154;51.674;7.824;2023-03-25T15:30:23;99513.53;;;20.61;49.77
48872;BME280;36154;51.674;7.824;2023-03-25T15:36:11;99522.13;;;20.61;49.90
48872;BME280;36154;51.674;7.824;2023-03-25T15:47:00;99507.34;;;20.63;49.71
48872;BME280;36154;51.674;7.824;2023-03-25T15:54:40;99514.16;;;20.66;49.56
48872;BME280;36154;51.674;7.824;2023-03-25T15:57:48;99517.50;;;20.68;49.51
48872;BME280;36154;51.674;7.824;2023-03-25T16:00:19;99506.25;;;20.69;49.55
48872;BME280;36154;51.674;7.824;2023-03-25T16:03:06;99509.66;;;20.70;49.45